createdAt,value
2018-05-25T00:01:02.109Z,99.90
2018-05-25T00:03:29.667Z,99.90
2018-05-25T00:05:57.229Z,99.90
2018-05-25T00:08:24.817Z,99.90
2018-05-25T00:10:53.143Z,99.90
2018-05-25T00:13:20.707Z,99.90
2018-05-25T00:15:48.285Z,99.90
2018-05-25T00:18:18.805Z,99.90
2018-05-25T00:20:46.382Z,99.90
2018-05-25T00:23:13.930Z,99.90
2018-05-25T00:25:41.488Z,99.90
2018-05-25T00:28:09.077Z,99.90
2018-05-25T00:30:37.400Z,99.90
2018-05-25T00:33:05.062Z,99.90
2018-05-25T00:35:32.642Z,99.90
2018-05-25T00:38:04.434Z,99.90
2018-05-25T00:40:32.025Z,99.90
2018-05-25T00:42:59.581Z,99.90
2018-05-25T00:45:27.137Z,99.90
2018-05-25T00:47:54.717Z,99.90
2018-05-25T00:50:22.309Z,99.90
2018-05-25T00:52:49.847Z,99.90
2018-05-25T00:55:29.274Z,99.90
2018-05-25T00:58:00.434Z,99.90
2018-05-25T01:00:28.009Z,99.90
2018-05-25T01:02:55.566Z,99.90
2018-05-25T01:05:23.123Z,99.90
2018-05-25T01:07:50.710Z,99.90
2018-05-25T01:10:19.036Z,99.90
2018-05-25T01:12:46.594Z,99.90
2018-05-25T01:15:14.165Z,99.90
2018-05-25T01:17:41.729Z,99.90
2018-05-25T01:20:09.319Z,99.90
2018-05-25T01:22:36.883Z,99.90
2018-05-25T01:25:05.214Z,99.90
2018-05-25T01:27:32.805Z,99.90
2018-05-25T01:30:00.370Z,99.90
2018-05-25T01:32:27.933Z,99.90
2018-05-25T01:34:55.500Z,99.90
2018-05-25T01:37:23.824Z,99.90
2018-05-25T01:39:51.401Z,99.90
2018-05-25T01:42:22.630Z,99.90
2018-05-25T01:44:50.183Z,99.90
2018-05-25T01:47:17.759Z,99.90
2018-05-25T01:49:45.328Z,99.90
2018-05-25T01:52:12.876Z,99.90
2018-05-25T01:54:40.462Z,99.90
2018-05-25T01:57:08.017Z,99.90
2018-05-25T01:59:35.602Z,99.90
2018-05-25T02:02:03.949Z,99.90
2018-05-25T02:04:31.517Z,99.90
2018-05-25T02:06:59.105Z,99.90
2018-05-25T02:09:27.431Z,99.90
2018-05-25T02:11:54.994Z,99.90
2018-05-25T02:14:22.582Z,99.90
2018-05-25T02:16:50.146Z,99.90
2018-05-25T02:19:17.723Z,99.90
2018-05-25T02:21:46.053Z,99.90
2018-05-25T02:24:13.601Z,99.90
2018-05-25T02:26:41.183Z,99.90
2018-05-25T02:29:08.738Z,99.90
2018-05-25T02:31:36.308Z,99.90
2018-05-25T02:34:03.911Z,99.90
2018-05-25T02:36:31.470Z,99.90
2018-05-25T02:38:59.053Z,99.90
2018-05-25T02:41:26.619Z,99.90
2018-05-25T02:43:54.179Z,99.90
2018-05-25T02:46:21.764Z,99.90
2018-05-25T02:48:49.344Z,99.90
2018-05-25T02:51:17.668Z,99.90
2018-05-25T02:53:45.250Z,99.90
2018-05-25T02:56:12.811Z,99.90
2018-05-25T02:58:46.565Z,99.90
2018-05-25T03:01:14.130Z,99.90
2018-05-25T03:03:41.694Z,99.90
2018-05-25T03:06:09.278Z,99.90
2018-05-25T03:08:36.850Z,99.90
2018-05-25T03:11:04.398Z,99.90
2018-05-25T03:13:31.964Z,99.90
2018-05-25T03:15:59.518Z,99.90
2018-05-25T03:18:30.497Z,99.90
2018-05-25T03:20:58.045Z,99.90
2018-05-25T03:23:25.597Z,99.90
2018-05-25T03:25:53.186Z,99.90
2018-05-25T03:28:21.492Z,99.90
2018-05-25T03:30:49.061Z,99.90
2018-05-25T03:33:16.637Z,99.90
2018-05-25T03:35:44.197Z,99.90
2018-05-25T03:38:11.795Z,99.90
2018-05-25T03:40:40.147Z,99.90
2018-05-25T03:43:13.734Z,99.90
2018-05-25T03:45:41.308Z,99.90
2018-05-25T03:48:08.870Z,99.90
2018-05-25T03:50:36.465Z,99.90
2018-05-25T03:53:04.801Z,99.90
2018-05-25T03:55:32.383Z,99.90
2018-05-25T03:57:59.965Z,99.90
2018-05-25T04:00:40.266Z,99.90
2018-05-25T04:03:08.773Z,99.90
2018-05-25T04:05:40.002Z,99.90
2018-05-25T04:08:07.600Z,99.90
2018-05-25T04:10:35.933Z,99.90
2018-05-25T04:13:03.494Z,99.90
2018-05-25T04:15:31.084Z,99.90
2018-05-25T04:17:58.643Z,99.90
2018-05-25T04:23:18.980Z,99.90
2018-05-25T04:25:47.335Z,99.90
2018-05-25T04:28:14.882Z,99.90
2018-05-25T04:30:42.445Z,99.90
2018-05-25T04:33:10.033Z,99.90
2018-05-25T04:35:38.389Z,99.90
2018-05-25T04:38:05.965Z,99.90
2018-05-25T04:40:33.529Z,99.90
2018-05-25T04:43:01.090Z,99.90
2018-05-25T04:45:29.425Z,99.90
2018-05-25T04:47:57.022Z,99.90
2018-05-25T04:50:24.589Z,99.90
2018-05-25T04:52:52.945Z,99.90
2018-05-25T04:55:20.509Z,99.90
2018-05-25T04:57:48.858Z,99.90
2018-05-25T05:00:16.444Z,99.90
2018-05-25T05:02:44.781Z,99.90
2018-05-25T05:05:12.362Z,99.90
2018-05-25T05:07:39.922Z,99.90
2018-05-25T05:10:20.261Z,99.90
2018-05-25T05:12:47.810Z,99.90
2018-05-25T05:15:16.136Z,99.90
2018-05-25T05:17:44.486Z,99.90
2018-05-25T05:20:13.002Z,99.90
2018-05-25T05:22:41.353Z,99.90
2018-05-25T05:25:08.933Z,99.90
2018-05-25T05:27:38.190Z,99.90
2018-05-25T05:30:05.765Z,99.90
2018-05-25T05:32:34.319Z,99.90
2018-05-25T05:35:05.265Z,99.90
2018-05-25T05:37:32.820Z,99.90
2018-05-25T05:40:00.380Z,99.90
2018-05-25T05:42:27.945Z,99.90
2018-05-25T05:44:55.503Z,99.90
2018-05-25T05:47:23.078Z,99.90
2018-05-25T05:49:50.624Z,99.90
2018-05-25T05:52:26.288Z,99.90
2018-05-25T05:54:53.846Z,99.90
2018-05-25T05:57:21.430Z,99.90
2018-05-25T05:59:49.018Z,99.90
2018-05-25T06:02:30.357Z,99.90
2018-05-25T06:04:57.942Z,99.90
2018-05-25T06:07:26.269Z,99.90
2018-05-25T06:09:53.823Z,99.90
2018-05-25T06:12:21.462Z,99.90
2018-05-25T06:14:49.013Z,99.90
2018-05-25T06:17:17.355Z,99.90
2018-05-25T06:19:44.940Z,99.90
2018-05-25T06:22:13.249Z,99.90
2018-05-25T06:24:40.830Z,99.90
2018-05-25T06:27:08.406Z,99.90
2018-05-25T06:29:35.955Z,99.90
2018-05-25T06:32:03.520Z,99.90
2018-05-25T06:34:31.101Z,99.90
2018-05-25T06:36:58.655Z,99.90
2018-05-25T06:39:26.220Z,99.90
2018-05-25T06:41:57.528Z,99.90
2018-05-25T06:44:25.099Z,99.90
2018-05-25T06:46:52.668Z,99.90
2018-05-25T06:49:21.171Z,99.90
2018-05-25T06:51:48.720Z,99.90
2018-05-25T06:54:17.277Z,99.90
2018-05-25T06:56:44.828Z,99.90
2018-05-25T06:59:12.591Z,99.90
2018-05-25T07:01:40.180Z,99.90
2018-05-25T07:04:07.742Z,99.90
2018-05-25T07:06:35.302Z,99.90
2018-05-25T07:09:02.898Z,99.90
2018-05-25T07:11:34.593Z,99.90
2018-05-25T07:14:02.166Z,99.90
2018-05-25T07:16:29.741Z,99.90
2018-05-25T07:18:57.302Z,99.90
2018-05-25T07:21:24.882Z,99.90
2018-05-25T07:23:53.206Z,99.90
2018-05-25T07:26:22.129Z,99.90
2018-05-25T07:28:49.681Z,99.90
2018-05-25T07:31:17.237Z,99.90
2018-05-25T07:33:44.845Z,99.90
2018-05-25T07:36:12.406Z,99.90
2018-05-25T07:38:39.975Z,99.90
2018-05-25T07:41:07.566Z,99.90
2018-05-25T07:43:35.118Z,99.90
2018-05-25T07:46:02.665Z,99.90
2018-05-25T07:48:30.252Z,99.90
2018-05-25T07:50:57.815Z,99.90
2018-05-25T07:53:25.368Z,99.90
2018-05-25T07:55:52.988Z,99.90
2018-05-25T07:58:20.541Z,99.90
2018-05-25T08:00:48.098Z,99.90
2018-05-25T08:03:15.681Z,99.90
2018-05-25T08:05:43.246Z,99.90
2018-05-25T08:08:10.826Z,99.90
2018-05-25T08:10:38.408Z,99.90
2018-05-25T08:13:05.962Z,99.90
2018-05-25T08:15:33.549Z,99.90
2018-05-25T08:18:01.126Z,99.90
2018-05-25T08:20:28.675Z,99.90
2018-05-25T08:22:56.259Z,99.90
2018-05-25T08:25:23.818Z,99.90
2018-05-25T08:27:51.417Z,99.90
2018-05-25T08:30:19.007Z,99.90
2018-05-25T08:32:47.325Z,99.90
2018-05-25T08:35:14.943Z,99.90
2018-05-25T08:37:42.503Z,99.90
2018-05-25T08:40:10.816Z,99.90
2018-05-25T08:42:38.469Z,99.90
2018-05-25T08:45:06.037Z,99.90
2018-05-25T08:47:33.596Z,99.90
2018-05-25T08:50:01.183Z,99.90
2018-05-25T08:52:28.742Z,99.90
2018-05-25T08:54:56.309Z,99.90
2018-05-25T08:57:23.888Z,99.90
2018-05-25T08:59:52.216Z,99.90
2018-05-25T09:02:19.783Z,99.90
2018-05-25T09:04:47.367Z,99.90
2018-05-25T09:07:14.927Z,99.90
2018-05-25T09:09:42.478Z,99.90
2018-05-25T09:12:10.060Z,99.90
2018-05-25T09:14:38.377Z,99.90
2018-05-25T09:17:05.954Z,99.90
2018-05-25T09:19:33.517Z,99.90
2018-05-25T09:22:01.117Z,99.90
2018-05-25T09:24:29.434Z,99.90
2018-05-25T09:26:56.991Z,99.90
2018-05-25T09:29:24.565Z,99.90
2018-05-25T09:31:52.123Z,99.90
2018-05-25T09:34:19.713Z,99.90
2018-05-25T09:36:47.271Z,99.90
2018-05-25T09:39:14.829Z,99.90
2018-05-25T09:41:42.414Z,99.90
2018-05-25T09:44:10.732Z,99.90
2018-05-25T09:46:38.321Z,99.90
2018-05-25T09:49:05.891Z,99.90
2018-05-25T09:51:33.477Z,99.90
2018-05-25T09:54:01.805Z,99.90
2018-05-25T09:56:29.357Z,99.90
2018-05-25T09:58:56.941Z,99.90
2018-05-25T10:01:24.521Z,99.90
2018-05-25T10:03:52.074Z,99.90
2018-05-25T10:06:19.624Z,99.90
2018-05-25T10:08:47.194Z,99.90
2018-05-25T10:11:14.758Z,99.90
2018-05-25T10:13:43.107Z,99.90
2018-05-25T10:16:10.656Z,99.90
2018-05-25T10:18:38.230Z,99.90
2018-05-25T10:21:05.777Z,99.90
2018-05-25T10:23:33.328Z,99.90
2018-05-25T10:26:00.901Z,99.90
2018-05-25T10:28:28.441Z,99.90
2018-05-25T10:30:56.013Z,99.90
2018-05-25T10:33:23.578Z,99.90
2018-05-25T10:35:51.156Z,99.90
2018-05-25T10:38:18.746Z,99.90
2018-05-25T10:40:47.070Z,99.90
2018-05-25T10:43:14.649Z,99.90
2018-05-25T10:45:42.258Z,99.90
2018-05-25T10:48:09.777Z,99.90
2018-05-25T10:50:37.348Z,99.90
2018-05-25T10:53:05.664Z,99.90
2018-05-25T10:55:33.247Z,99.90
2018-05-25T10:58:00.796Z,99.90
2018-05-25T11:00:28.351Z,99.90
2018-05-25T11:02:55.933Z,99.90
2018-05-25T11:05:23.486Z,99.90
2018-05-25T11:07:51.066Z,99.90
2018-05-25T11:10:18.648Z,99.90
2018-05-25T11:12:46.955Z,99.90
2018-05-25T11:15:14.536Z,99.90
2018-05-25T11:17:42.086Z,99.90
2018-05-25T11:20:09.667Z,99.90
2018-05-25T11:22:37.238Z,99.90
2018-05-25T11:25:04.781Z,99.90
2018-05-25T11:27:32.385Z,99.90
2018-05-25T11:30:00.697Z,99.90
2018-05-25T11:32:28.282Z,99.90
2018-05-25T11:34:55.840Z,99.90
2018-05-25T11:37:23.387Z,99.90
2018-05-25T11:39:50.974Z,99.90
2018-05-25T11:42:18.539Z,99.90
2018-05-25T11:44:46.123Z,99.90
2018-05-25T11:47:14.436Z,99.90
2018-05-25T11:49:41.996Z,99.90
2018-05-25T11:52:09.585Z,99.90
2018-05-25T11:54:37.161Z,99.90
2018-05-25T11:57:04.742Z,99.90
2018-05-25T11:59:32.298Z,99.90
2018-05-25T12:02:00.607Z,99.90
2018-05-25T12:04:28.187Z,99.90
2018-05-25T12:06:55.737Z,99.90
2018-05-25T12:09:23.286Z,99.90
2018-05-25T12:11:50.856Z,99.90
2018-05-25T12:14:18.409Z,96.80
2018-05-25T12:16:45.990Z,99.90
2018-05-25T12:19:13.541Z,99.40
2018-05-25T12:21:41.105Z,97.40
2018-05-25T12:24:08.683Z,97.30
2018-05-25T12:26:36.238Z,96.40
2018-05-25T12:29:03.784Z,97.40
2018-05-25T12:31:31.353Z,97.70
2018-05-25T12:33:58.942Z,96.50
2018-05-25T12:36:27.268Z,97.00
2018-05-25T12:38:54.841Z,96.90
2018-05-25T12:41:22.409Z,98.60
2018-05-25T12:43:49.957Z,98.50
2018-05-25T12:46:17.551Z,97.10
2018-05-25T12:48:45.872Z,95.50
2018-05-25T12:51:13.432Z,95.60
2018-05-25T12:53:41.025Z,96.80
2018-05-25T12:56:08.595Z,95.60
2018-05-25T12:58:36.143Z,93.80
2018-05-25T13:01:03.732Z,93.90
2018-05-25T13:03:32.062Z,96.20
2018-05-25T13:05:59.609Z,96.10
2018-05-25T13:08:27.184Z,95.10
2018-05-25T13:10:54.742Z,95.40
2018-05-25T13:13:22.299Z,96.80
2018-05-25T13:15:49.877Z,97.30
2018-05-25T13:18:17.425Z,96.90
2018-05-25T13:20:44.986Z,94.70
2018-05-25T13:23:12.564Z,94.30
2018-05-25T13:25:41.042Z,93.20
2018-05-25T13:28:08.607Z,94.70
2018-05-25T13:30:36.195Z,94.00
2018-05-25T13:33:03.749Z,94.70
2018-05-25T13:35:32.062Z,94.60
2018-05-25T13:37:59.645Z,94.40
2018-05-25T13:40:27.194Z,93.30
2018-05-25T13:42:54.753Z,93.00
2018-05-25T13:45:23.105Z,93.60
2018-05-25T13:47:50.654Z,92.80
2018-05-25T13:50:18.237Z,93.50
2018-05-25T13:52:45.795Z,93.30
2018-05-25T13:55:13.341Z,92.50
2018-05-25T13:57:40.933Z,92.30
2018-05-25T14:00:08.472Z,92.50
2018-05-25T14:02:36.031Z,93.70
2018-05-25T14:05:03.622Z,92.70
2018-05-25T14:07:31.172Z,93.50
2018-05-25T14:09:58.726Z,92.40
2018-05-25T14:12:26.305Z,92.20
2018-05-25T14:14:53.846Z,89.10
2018-05-25T14:17:21.389Z,88.50
2018-05-25T14:19:48.968Z,90.50
2018-05-25T14:22:16.556Z,90.70
2018-05-25T14:24:44.073Z,92.10
2018-05-25T14:27:24.225Z,92.80
2018-05-25T14:29:51.779Z,92.40
2018-05-25T14:32:19.343Z,91.60
2018-05-25T14:34:46.921Z,91.50
2018-05-25T14:37:14.463Z,91.50
2018-05-25T14:39:42.029Z,91.50
2018-05-25T14:42:09.603Z,91.80
2018-05-25T14:44:37.167Z,91.10
2018-05-25T14:47:04.773Z,91.50
2018-05-25T14:49:33.141Z,92.50
2018-05-25T14:52:00.698Z,92.50
2018-05-25T14:54:29.049Z,91.90
2018-05-25T14:56:56.617Z,91.90
2018-05-25T14:59:24.187Z,91.00
2018-05-25T15:01:52.534Z,91.30
2018-05-25T15:04:20.094Z,91.30
2018-05-25T15:06:47.647Z,89.10
2018-05-25T15:09:15.253Z,90.10
2018-05-25T15:11:43.565Z,87.90
2018-05-25T15:14:11.115Z,87.80
2018-05-25T15:16:38.693Z,89.30
2018-05-25T15:19:06.267Z,88.40
2018-05-25T15:21:33.825Z,88.30
2018-05-25T15:24:01.404Z,86.40
2018-05-25T15:26:28.958Z,90.10
2018-05-25T15:28:56.510Z,85.50
2018-05-25T15:31:24.103Z,85.30
2018-05-25T15:33:52.417Z,83.30
2018-05-25T15:36:19.977Z,83.40
2018-05-25T15:38:47.553Z,79.00
2018-05-25T15:41:15.098Z,80.80
2018-05-25T15:43:42.682Z,78.30
2018-05-25T15:46:10.235Z,78.60
2018-05-25T15:48:37.790Z,76.00
2018-05-25T15:51:05.378Z,76.60
2018-05-25T15:53:32.928Z,75.30
2018-05-25T15:56:00.481Z,75.70
2018-05-25T15:58:28.053Z,71.90
2018-05-25T16:00:55.617Z,75.10
2018-05-25T16:03:23.170Z,74.00
2018-05-25T16:05:51.523Z,74.60
2018-05-25T16:08:19.072Z,74.60
2018-05-25T16:10:46.625Z,74.80
2018-05-25T16:13:14.204Z,76.10
2018-05-25T16:15:41.749Z,75.50
2018-05-25T16:18:09.301Z,72.10
2018-05-25T16:20:36.889Z,71.70
2018-05-25T16:23:04.449Z,72.30
2018-05-25T16:25:31.999Z,72.90
2018-05-25T16:27:59.590Z,72.30
2018-05-25T16:30:27.184Z,70.10
2018-05-25T16:32:54.758Z,72.70
2018-05-25T16:35:22.308Z,68.00
2018-05-25T16:37:49.858Z,69.10
2018-05-25T16:40:17.492Z,66.90
2018-05-25T16:42:45.026Z,68.00
2018-05-25T16:45:12.573Z,68.80
2018-05-25T16:47:40.154Z,71.20
2018-05-25T16:50:07.727Z,65.50
2018-05-25T16:52:36.090Z,63.60
2018-05-25T16:55:03.648Z,63.60
2018-05-25T16:57:31.197Z,68.90
2018-05-25T16:59:58.795Z,65.60
2018-05-25T17:02:27.114Z,68.10
2018-05-25T17:04:54.677Z,68.10
2018-05-25T17:07:22.248Z,67.80
2018-05-25T17:09:49.802Z,68.10
2018-05-25T17:12:17.383Z,72.50
2018-05-25T17:14:44.929Z,71.20
2018-05-25T17:17:12.491Z,71.70
2018-05-25T17:19:40.093Z,73.70
2018-05-25T17:22:08.418Z,75.60
2018-05-25T17:24:35.965Z,75.60
2018-05-25T17:27:03.600Z,80.80
2018-05-25T17:29:31.145Z,82.30
2018-05-25T17:31:59.484Z,78.40
2018-05-25T17:34:27.076Z,78.30
2018-05-25T17:36:55.438Z,82.30
2018-05-25T17:39:23.021Z,82.00
2018-05-25T17:41:51.337Z,83.10
2018-05-25T17:44:18.905Z,83.20
2018-05-25T17:46:46.489Z,87.70
2018-05-25T17:49:14.070Z,91.20
2018-05-25T17:51:56.193Z,89.90
2018-05-25T17:54:23.758Z,89.80
2018-05-25T17:56:51.348Z,91.00
2018-05-25T17:59:18.906Z,91.70
2018-05-25T18:01:46.480Z,94.40
2018-05-25T18:04:14.057Z,93.00
2018-05-25T18:06:41.607Z,93.70
2018-05-25T18:09:28.816Z,94.20
2018-05-25T18:11:56.366Z,95.80
2018-05-25T18:14:24.987Z,95.90
2018-05-25T18:16:52.537Z,95.90
2018-05-25T18:19:20.107Z,98.30
2018-05-25T18:21:48.427Z,97.30
2018-05-25T18:24:15.998Z,97.30
2018-05-25T18:26:43.552Z,99.60
2018-05-25T18:29:11.138Z,99.90
2018-05-25T18:31:38.688Z,99.90
2018-05-25T18:34:06.270Z,99.90
2018-05-25T18:36:33.810Z,99.90
2018-05-25T19:14:16.187Z,99.90
2018-05-25T19:16:43.727Z,99.90
2018-05-25T19:19:12.083Z,99.90
2018-05-25T19:21:39.647Z,99.90
2018-05-25T19:24:07.221Z,99.90
2018-05-25T19:26:34.767Z,99.90
2018-05-25T19:29:02.356Z,99.90
2018-05-25T19:31:30.687Z,99.90
2018-05-25T19:34:19.384Z,99.90
2018-05-25T19:36:46.972Z,99.90
2018-05-25T19:39:14.530Z,99.90
2018-05-25T19:41:42.101Z,99.90
2018-05-25T19:44:09.653Z,99.90
2018-05-25T19:46:37.238Z,99.90
2018-05-25T19:49:04.788Z,99.90
2018-05-25T19:51:32.359Z,99.90
2018-05-25T19:53:59.911Z,99.90
2018-05-25T19:56:27.482Z,99.90
2018-05-25T19:58:55.022Z,99.90
2018-05-25T20:01:22.590Z,99.90
2018-05-25T20:03:50.147Z,99.90
2018-05-25T20:06:17.719Z,99.90
2018-05-25T20:08:45.263Z,99.90
2018-05-25T20:11:12.829Z,99.90
2018-05-25T20:13:40.369Z,99.90
2018-05-25T20:16:08.074Z,99.90
2018-05-25T20:18:35.605Z,99.90
2018-05-25T20:21:03.180Z,99.90
2018-05-25T20:23:30.761Z,99.90
2018-05-25T20:25:58.341Z,99.90
2018-05-25T20:28:26.693Z,99.90
2018-05-25T20:30:54.234Z,99.90
2018-05-25T20:33:21.787Z,99.90
2018-05-25T20:35:49.378Z,99.90
2018-05-25T20:38:16.931Z,99.90
2018-05-25T20:40:44.519Z,99.90
2018-05-25T20:43:12.834Z,99.90
2018-05-25T20:45:40.420Z,99.90
2018-05-25T20:48:07.973Z,99.90
2018-05-25T20:50:35.543Z,99.90
2018-05-25T20:53:03.091Z,99.90
2018-05-25T20:55:30.662Z,99.90
2018-05-25T20:58:00.318Z,99.90
2018-05-25T21:00:27.899Z,99.90
2018-05-25T21:02:55.444Z,99.90
2018-05-25T21:05:23.019Z,99.90
2018-05-25T21:07:50.588Z,99.90
2018-05-25T21:10:18.163Z,99.90
2018-05-25T21:12:56.065Z,99.90
2018-05-25T21:15:23.632Z,99.90
2018-05-25T21:17:51.232Z,99.90
2018-05-25T21:20:18.773Z,99.90
2018-05-25T21:22:47.097Z,99.90
2018-05-25T21:25:14.672Z,99.90
2018-05-25T21:27:42.995Z,99.90
2018-05-25T21:30:11.385Z,99.90
2018-05-25T21:32:38.913Z,99.90
2018-05-25T21:35:06.505Z,99.90
2018-05-25T21:37:34.066Z,99.90
2018-05-25T21:40:01.633Z,99.90
2018-05-25T21:42:29.202Z,99.90
2018-05-25T21:44:56.764Z,99.90
2018-05-25T21:47:24.308Z,99.90
2018-05-25T21:49:51.889Z,99.90
2018-05-25T21:52:19.447Z,99.90
2018-05-25T21:54:47.024Z,99.90
2018-05-25T21:57:14.577Z,99.90
2018-05-25T21:59:42.150Z,99.90
2018-05-25T22:02:09.723Z,99.90
2018-05-25T22:04:37.307Z,99.90
2018-05-25T22:07:05.626Z,99.90
2018-05-25T22:09:33.235Z,99.90
2018-05-25T22:12:01.564Z,99.90
2018-05-25T22:14:29.142Z,99.90
2018-05-25T22:16:56.749Z,99.90
2018-05-25T22:19:24.294Z,99.90
2018-05-25T22:21:52.621Z,99.90
2018-05-25T22:24:20.204Z,99.90
2018-05-25T22:26:47.752Z,99.90
2018-05-25T22:29:18.506Z,99.90
2018-05-25T22:31:46.055Z,99.90
2018-05-25T22:34:13.633Z,99.90
2018-05-25T22:36:41.958Z,99.90
2018-05-25T22:39:09.523Z,99.90
2018-05-25T22:41:37.081Z,99.90
2018-05-25T22:44:16.412Z,99.90
2018-05-25T22:46:55.814Z,99.90
2018-05-25T22:49:36.084Z,99.90
2018-05-25T22:52:15.523Z,99.90
2018-05-25T22:54:43.154Z,99.90
2018-05-25T22:57:11.501Z,99.90
2018-05-25T22:59:39.072Z,99.90
2018-05-25T23:02:06.652Z,99.90
2018-05-25T23:04:34.269Z,99.90
2018-05-25T23:07:02.611Z,99.90
2018-05-25T23:09:30.966Z,99.90
2018-05-25T23:11:58.535Z,99.90
2018-05-25T23:14:26.110Z,99.90
2018-05-25T23:16:53.666Z,99.90
2018-05-25T23:19:21.980Z,99.90
2018-05-25T23:21:49.554Z,99.90
2018-05-25T23:24:17.102Z,99.90
2018-05-25T23:26:44.651Z,99.90
2018-05-25T23:29:12.238Z,99.90
2018-05-25T23:31:39.802Z,99.90
2018-05-25T23:34:07.399Z,99.90
2018-05-25T23:36:42.554Z,99.90
2018-05-25T23:39:10.133Z,99.90
2018-05-25T23:41:37.690Z,99.90
2018-05-25T23:44:05.252Z,99.90
2018-05-25T23:46:32.833Z,99.90
2018-05-25T23:49:00.393Z,99.90
2018-05-25T23:51:27.963Z,99.90
2018-05-25T23:53:55.543Z,99.90
2018-05-25T23:56:23.866Z,99.90
2018-05-25T23:58:51.456Z,99.90
